Amery, WI (54001)

4:27 PM CDT on July 23, 2016 (GMT -0500)
Balsam Lake Boston Bay | | Change Station

Elev 1115 ft 45.48 °N, 92.45 °W | Updated 4 minutes ago

Heavy Rain
Heavy Rain
69.3 °F
Feels Like 69.3 °F
N
2.2
Wind Variable Wind from East

Today
High -- | Low -- °F
--% Chance of Precip.
Yesterday
High -- | Low -- °F
Precip. -- in
Pressure 29.91 in
Visibility 2.0 miles
Clouds Scattered Clouds 1700 ft
Mostly Cloudy 2800 ft
Overcast 4400 ft
Dew Point 68 °F
Humidity 95%
Rainfall 0.67 in
Snow Depth Not available.
5:44 AM 8:46 PM
Waning Gibbous, 82% visible
METAR KOEO 232115Z AUTO 16011G16KT 2SM +RA SCT017 BKN028 OVC044 22/21 A2991 RMK AO2 P0017 T02150214
Pressure 29.91 in
Visibility 2.0 miles
Clouds Scattered Clouds 1700 ft
Mostly Cloudy 2800 ft
Overcast 4400 ft
Dew Point 68 °F
Humidity 95%
Rainfall 0.67 in
Snow Depth Not available.
5:44 AM 8:46 PM
Waning Gibbous, 82% visible
METAR KOEO 232115Z AUTO 16011G16KT 2SM +RA SCT017 BKN028 OVC044 22/21 A2991 RMK AO2 P0017 T02150214

10-Day Weather Forecast

Almanac

Astronomy

Jul. 23, 2016 Rise Set
Actual Time
Civil Twilight
Nautical Twilight
Astronomical Twilight
Moon
Length of Visible Light
Length of Day
Tomorrow will be .
, % of the Moon is Illuminated

Today's Extremes

State Highs State Lows

Community

WunderPhotos

Upload Photos

1,926,929 photos uploaded!

WunderBlog® & News

Nearby

Air Quality

  Air Quality AQ Index Pollutant
Not available.

Snow Depth

Station Depth Elevation

Earthquake Activity

City Distance Mag. Time & Date
Minimum magnitude displayed is 2.5.

Coastal Water Temperatures

Place Temperature

Stations

Nearby Weather Stations

Station Location Temp. Windchill Dew Point Humidity Wind Precip. Elev Updated Type
                   

Watches & Warnings

Flash Flood Watch
Issued: 4:09 PM CDT Jul. 23, 2016 – National Weather Service

... Flash Flood Watch remains in effect through Sunday morning...

The Flash Flood Watch continues for

* portions of Minnesota and northwest Wisconsin... including the
following areas... in Minnesota... Benton... Chisago... Isanti...
Kanabec... Mille Lacs and Morrison. In northwest Wisconsin...
Barron... Polk and Rusk.

* Through Sunday morning

* recent heavy rainfall... combined with the potential of high
rainfall rates expected during this upcoming event... will lead
to an increase the flooding threat in the watch area.

Precautionary/preparedness actions...

A Flash Flood Watch means that conditions may develop that lead
to flash flooding. Flash flooding is a very dangerous situation.

You should monitor later forecasts and be prepared to take action
should flash flood warnings be issued.